Axtel, Kentucky
Current Conditions -  °F | °C
As of 11:58 PM on Wednesday 28 Jan 2015 (Local Time) from KFTK Reporting Station
Clear Clear  
Wind Chill: -1°   Ceiling: Unl
Heat Index:   Visibility: 10mi
Dew Point: -8°   Wind: 13mph
Humidity: 44%   Direction: 160°SSE
Pressure: 30.04"   Gusts: NA
Location:  37.7834°N, 86.4612°W
Report Text: KFTK 290558Z AUTO 16011KT 10SM CLR 03/M08 A3004 RMK AO2 SLP180 T00321079 10032 20003 58023
Loading
Personal Weather Stations






























Interactive Weather Map New forecast layout! Learn more

10-Day Weather Forecast

Advertisements
Track Severe Weather on mobile